Jasper S — V2CQ4 — position and weather

sailwx.info

Track history (hours):
 
Tides and Currents Weather Stations Pressure Air Temp Water Temp Dewpoint Dewpoint Depression Visibility Wind Speed Wind Dir Waves Ship Positions

Jasper S

Last reported at 2014-Dec-14 11:19 UTC. Time now 2014-Dec-21 03:22 UTC.
Position N 42°13' E 036°16'.

Length 148 m; draft 8.6 m.

Type: Cargo ship. MMSI: 305079000.

Date/timePositionNaut miles runAvg speedWind from/ knotsBaromVisibWave heightAir tempDewpointWater temp
2014-Dec-14 11:19N 42°13' E 036°16'7412.7
2014-Dec-14 05:27N 42°13' E 034°36'1112.3
2014-Dec-14 04:33N 42°12' E 034°21'22012.2
2014-Dec-13 10:33N 41°21' E 029°34'1211.8
2014-Dec-13 09:34N 41°17' E 029°19'  
2014-Dec-10 09:09N 41°14' E 029°08'4 6.8
2014-Dec-10 08:33N 41°18' E 029°05'1 0.1
2014-Dec-09 19:12N 41°16' E 029°04'0 0.0
2014-Dec-07 17:32N 41°16' E 029°05'1111.2
2014-Dec-07 16:31N 41°24' E 029°16'1212.5
2014-Dec-07 15:33N 41°26' E 029°32'  
Track history (hours):
 
Tides and Currents Weather Stations Pressure Air Temp Water Temp Dewpoint Dewpoint Depression Visibility Wind Speed Wind Dir Waves Ship Positions

Jasper S

Last reported at 2014-Dec-14 11:19 UTC. Time now 2014-Dec-21 03:22 UTC.
Position N 42°13' E 036°16'.

Length 148 m; draft 8.6 m.

Type: Cargo ship. MMSI: 305079000.

Date/timePositionNaut miles runAvg speedWind from/ knotsBaromVisibWave heightAir tempDewpointWater temp
2014-Dec-14 11:19N 42°13' E 036°16'7412.7
2014-Dec-14 05:27N 42°13' E 034°36'1112.3
2014-Dec-14 04:33N 42°12' E 034°21'22012.2
2014-Dec-13 10:33N 41°21' E 029°34'1211.8
2014-Dec-13 09:34N 41°17' E 029°19'  
2014-Dec-10 09:09N 41°14' E 029°08'4 6.8
2014-Dec-10 08:33N 41°18' E 029°05'1 0.1
2014-Dec-09 19:12N 41°16' E 029°04'0 0.0
2014-Dec-07 17:32N 41°16' E 029°05'1111.2
2014-Dec-07 16:31N 41°24' E 029°16'1212.5
2014-Dec-07 15:33N 41°26' E 029°32'  

Dump ship's entire track history